sensor_id;sensor_type;location;lat;lon;timestamp;temperature;humidity
981;DHT22;479;53.514;9.994;2024-03-29T00:01:50;8.10;99.90
981;DHT22;479;53.514;9.994;2024-03-29T00:04:16;8.00;99.90
981;DHT22;479;53.514;9.994;2024-03-29T00:06:42;8.00;99.90
981;DHT22;479;53.514;9.994;2024-03-29T00:09:08;8.00;99.90
981;DHT22;479;53.514;9.994;2024-03-29T00:11:34;8.00;99.90
981;DHT22;479;53.514;9.994;2024-03-29T00:14:00;7.90;99.90
981;DHT22;479;53.514;9.994;2024-03-29T00:16:26;7.90;99.90
981;DHT22;479;53.514;9.994;2024-03-29T00:18:53;7.90;99.90
981;DHT22;479;53.514;9.994;2024-03-29T00:21:19;7.80;99.90
981;DHT22;479;53.514;9.994;2024-03-29T00:23:45;7.80;99.90
981;DHT22;479;53.514;9.994;2024-03-29T00:26:11;7.80;99.90
981;DHT22;479;53.514;9.994;2024-03-29T00:28:39;7.80;99.90
981;DHT22;479;53.514;9.994;2024-03-29T00:31:05;7.80;99.90
981;DHT22;479;53.514;9.994;2024-03-29T00:33:31;7.70;99.90
981;DHT22;479;53.514;9.994;2024-03-29T00:35:58;7.70;99.90
981;DHT22;479;53.514;9.994;2024-03-29T00:38:24;7.70;99.90
981;DHT22;479;53.514;9.994;2024-03-29T00:40:50;7.70;99.90
981;DHT22;479;53.514;9.994;2024-03-29T00:43:16;7.60;99.90
981;DHT22;479;53.514;9.994;2024-03-29T00:45:42;7.70;99.90
981;DHT22;479;53.514;9.994;2024-03-29T00:48:09;7.60;99.90
981;DHT22;479;53.514;9.994;2024-03-29T00:50:35;7.60;99.90
981;DHT22;479;53.514;9.994;2024-03-29T00:53:03;7.50;99.90
981;DHT22;479;53.514;9.994;2024-03-29T00:55:29;7.50;99.90
981;DHT22;479;53.514;9.994;2024-03-29T00:57:55;7.50;99.90
981;DHT22;479;53.514;9.994;2024-03-29T01:00:21;7.50;99.90
981;DHT22;479;53.514;9.994;2024-03-29T01:02:47;7.50;99.90
981;DHT22;479;53.514;9.994;2024-03-29T01:05:13;7.50;99.90
981;DHT22;479;53.514;9.994;2024-03-29T01:07:40;7.50;99.90
981;DHT22;479;53.514;9.994;2024-03-29T01:10:08;7.50;99.90
981;DHT22;479;53.514;9.994;2024-03-29T01:12:34;7.40;99.90
981;DHT22;479;53.514;9.994;2024-03-29T01:15:00;7.40;99.90
981;DHT22;479;53.514;9.994;2024-03-29T01:17:26;7.40;99.90
981;DHT22;479;53.514;9.994;2024-03-29T01:19:52;7.40;99.90
981;DHT22;479;53.514;9.994;2024-03-29T01:22:18;7.40;99.90
981;DHT22;479;53.514;9.994;2024-03-29T01:24:44;7.30;99.90
981;DHT22;479;53.514;9.994;2024-03-29T01:27:12;7.30;99.90
981;DHT22;479;53.514;9.994;2024-03-29T01:29:37;7.30;99.90
981;DHT22;479;53.514;9.994;2024-03-29T01:32:04;7.30;99.90
981;DHT22;479;53.514;9.994;2024-03-29T01:34:30;7.30;99.90
981;DHT22;479;53.514;9.994;2024-03-29T01:36:56;7.30;99.90
981;DHT22;479;53.514;9.994;2024-03-29T01:39:22;7.30;99.90
981;DHT22;479;53.514;9.994;2024-03-29T01:41:48;7.20;99.90
981;DHT22;479;53.514;9.994;2024-03-29T01:44:15;7.20;99.90
981;DHT22;479;53.514;9.994;2024-03-29T01:46:42;7.20;99.90
981;DHT22;479;53.514;9.994;2024-03-29T01:49:10;7.20;99.90
981;DHT22;479;53.514;9.994;2024-03-29T01:51:39;7.30;99.90
981;DHT22;479;53.514;9.994;2024-03-29T01:54:07;7.20;99.90
981;DHT22;479;53.514;9.994;2024-03-29T01:56:35;7.20;99.90
981;DHT22;479;53.514;9.994;2024-03-29T01:59:03;7.20;99.90
981;DHT22;479;53.514;9.994;2024-03-29T02:01:32;7.10;99.90
981;DHT22;479;53.514;9.994;2024-03-29T02:04:00;7.10;99.90
981;DHT22;479;53.514;9.994;2024-03-29T02:06:28;7.10;99.90
981;DHT22;479;53.514;9.994;2024-03-29T02:08:56;7.10;99.90
981;DHT22;479;53.514;9.994;2024-03-29T02:11:23;7.10;99.90
981;DHT22;479;53.514;9.994;2024-03-29T02:13:50;7.10;99.90
981;DHT22;479;53.514;9.994;2024-03-29T02:16:17;7.20;99.90
981;DHT22;479;53.514;9.994;2024-03-29T02:18:45;7.20;99.90
981;DHT22;479;53.514;9.994;2024-03-29T02:21:12;7.10;99.90
981;DHT22;479;53.514;9.994;2024-03-29T02:23:43;7.20;99.90
981;DHT22;479;53.514;9.994;2024-03-29T02:26:12;7.10;99.90
981;DHT22;479;53.514;9.994;2024-03-29T02:28:39;7.10;99.90
981;DHT22;479;53.514;9.994;2024-03-29T02:31:06;7.20;99.90
981;DHT22;479;53.514;9.994;2024-03-29T02:33:31;7.10;99.90
981;DHT22;479;53.514;9.994;2024-03-29T02:35:58;7.10;99.90
981;DHT22;479;53.514;9.994;2024-03-29T02:38:25;7.10;99.90
981;DHT22;479;53.514;9.994;2024-03-29T02:40:52;7.10;99.90
981;DHT22;479;53.514;9.994;2024-03-29T02:43:19;7.10;99.90
981;DHT22;479;53.514;9.994;2024-03-29T02:45:46;7.10;99.90
981;DHT22;479;53.514;9.994;2024-03-29T02:48:13;7.10;99.90
981;DHT22;479;53.514;9.994;2024-03-29T02:50:39;7.10;99.90
981;DHT22;479;53.514;9.994;2024-03-29T02:53:05;7.10;99.90
981;DHT22;479;53.514;9.994;2024-03-29T02:55:31;7.10;99.90
981;DHT22;479;53.514;9.994;2024-03-29T02:57:58;7.10;99.90
981;DHT22;479;53.514;9.994;2024-03-29T03:00:25;7.10;99.90
981;DHT22;479;53.514;9.994;2024-03-29T03:02:52;7.00;99.90
981;DHT22;479;53.514;9.994;2024-03-29T03:05:18;7.00;99.90
981;DHT22;479;53.514;9.994;2024-03-29T03:07:45;7.10;99.90
981;DHT22;479;53.514;9.994;2024-03-29T03:10:29;7.00;99.90
981;DHT22;479;53.514;9.994;2024-03-29T03:13:13;7.00;99.90
981;DHT22;479;53.514;9.994;2024-03-29T03:15:42;7.00;99.90
981;DHT22;479;53.514;9.994;2024-03-29T03:18:08;7.00;99.90
981;DHT22;479;53.514;9.994;2024-03-29T03:20:34;6.90;99.90
981;DHT22;479;53.514;9.994;2024-03-29T03:23:03;6.80;99.90
981;DHT22;479;53.514;9.994;2024-03-29T03:25:30;6.80;99.90
981;DHT22;479;53.514;9.994;2024-03-29T03:27:56;6.80;99.90
981;DHT22;479;53.514;9.994;2024-03-29T03:30:23;6.80;99.90
981;DHT22;479;53.514;9.994;2024-03-29T03:32:50;6.70;99.90
981;DHT22;479;53.514;9.994;2024-03-29T03:35:17;6.60;99.90
981;DHT22;479;53.514;9.994;2024-03-29T03:37:43;6.60;99.90
981;DHT22;479;53.514;9.994;2024-03-29T03:40:10;6.50;99.90
981;DHT22;479;53.514;9.994;2024-03-29T03:42:36;6.50;99.90
981;DHT22;479;53.514;9.994;2024-03-29T03:45:04;6.50;99.90
981;DHT22;479;53.514;9.994;2024-03-29T03:47:30;6.40;99.90
981;DHT22;479;53.514;9.994;2024-03-29T03:49:58;6.40;99.90
981;DHT22;479;53.514;9.994;2024-03-29T03:52:24;6.40;99.90
981;DHT22;479;53.514;9.994;2024-03-29T03:54:51;6.40;99.90
981;DHT22;479;53.514;9.994;2024-03-29T03:57:16;6.30;99.90
981;DHT22;479;53.514;9.994;2024-03-29T03:59:43;6.30;99.90
981;DHT22;479;53.514;9.994;2024-03-29T04:02:09;6.30;99.90
981;DHT22;479;53.514;9.994;2024-03-29T04:04:36;6.30;99.90
981;DHT22;479;53.514;9.994;2024-03-29T04:07:03;6.40;99.90
981;DHT22;479;53.514;9.994;2024-03-29T04:09:30;6.30;99.90
981;DHT22;479;53.514;9.994;2024-03-29T04:11:56;6.40;99.90
981;DHT22;479;53.514;9.994;2024-03-29T04:14:23;6.40;99.90
981;DHT22;479;53.514;9.994;2024-03-29T04:16:49;6.40;99.90
981;DHT22;479;53.514;9.994;2024-03-29T04:19:16;6.40;99.90
981;DHT22;479;53.514;9.994;2024-03-29T04:21:42;6.40;99.90
981;DHT22;479;53.514;9.994;2024-03-29T04:24:10;6.40;99.90
981;DHT22;479;53.514;9.994;2024-03-29T04:26:36;6.40;99.90
981;DHT22;479;53.514;9.994;2024-03-29T04:29:04;6.50;99.90
981;DHT22;479;53.514;9.994;2024-03-29T04:31:30;6.50;99.90
981;DHT22;479;53.514;9.994;2024-03-29T04:33:57;6.50;99.90
981;DHT22;479;53.514;9.994;2024-03-29T04:36:22;6.50;99.90
981;DHT22;479;53.514;9.994;2024-03-29T04:38:50;6.50;99.90
981;DHT22;479;53.514;9.994;2024-03-29T04:41:18;6.50;99.90
981;DHT22;479;53.514;9.994;2024-03-29T04:43:45;6.60;99.90
981;DHT22;479;53.514;9.994;2024-03-29T04:46:13;6.60;99.90
981;DHT22;479;53.514;9.994;2024-03-29T04:48:41;6.60;99.90
981;DHT22;479;53.514;9.994;2024-03-29T04:51:08;6.60;99.90
981;DHT22;479;53.514;9.994;2024-03-29T04:53:36;6.60;99.90
981;DHT22;479;53.514;9.994;2024-03-29T04:56:03;6.70;99.90
981;DHT22;479;53.514;9.994;2024-03-29T04:58:31;6.70;99.90
981;DHT22;479;53.514;9.994;2024-03-29T05:00:58;6.80;99.90
981;DHT22;479;53.514;9.994;2024-03-29T05:03:25;6.70;99.90
981;DHT22;479;53.514;9.994;2024-03-29T05:05:52;6.70;99.90
981;DHT22;479;53.514;9.994;2024-03-29T05:08:19;6.80;99.90
981;DHT22;479;53.514;9.994;2024-03-29T05:10:48;6.80;99.90
981;DHT22;479;53.514;9.994;2024-03-29T05:13:15;6.80;99.90
981;DHT22;479;53.514;9.994;2024-03-29T05:15:44;6.90;99.90
981;DHT22;479;53.514;9.994;2024-03-29T05:18:11;6.90;99.90
981;DHT22;479;53.514;9.994;2024-03-29T05:20:37;6.90;99.90
981;DHT22;479;53.514;9.994;2024-03-29T05:23:06;6.80;99.90
981;DHT22;479;53.514;9.994;2024-03-29T05:25:33;6.90;99.90
981;DHT22;479;53.514;9.994;2024-03-29T05:28:01;6.90;99.90
981;DHT22;479;53.514;9.994;2024-03-29T05:30:29;6.90;99.90
981;DHT22;479;53.514;9.994;2024-03-29T05:32:57;6.90;99.90
981;DHT22;479;53.514;9.994;2024-03-29T05:35:24;6.90;99.90
981;DHT22;479;53.514;9.994;2024-03-29T05:37:51;6.90;99.90
981;DHT22;479;53.514;9.994;2024-03-29T05:40:20;7.00;99.90
981;DHT22;479;53.514;9.994;2024-03-29T05:42:51;7.00;99.90
981;DHT22;479;53.514;9.994;2024-03-29T05:45:26;7.00;99.90
981;DHT22;479;53.514;9.994;2024-03-29T05:47:53;7.00;99.90
981;DHT22;479;53.514;9.994;2024-03-29T05:50:23;7.10;99.90
981;DHT22;479;53.514;9.994;2024-03-29T05:52:50;7.10;99.90
981;DHT22;479;53.514;9.994;2024-03-29T05:55:18;7.10;99.90
981;DHT22;479;53.514;9.994;2024-03-29T05:57:45;7.10;99.90
981;DHT22;479;53.514;9.994;2024-03-29T06:00:13;7.10;99.90
981;DHT22;479;53.514;9.994;2024-03-29T06:02:41;7.20;99.90
981;DHT22;479;53.514;9.994;2024-03-29T06:05:10;7.20;99.90
981;DHT22;479;53.514;9.994;2024-03-29T06:07:38;7.20;99.90
981;DHT22;479;53.514;9.994;2024-03-29T06:10:06;7.20;99.90
981;DHT22;479;53.514;9.994;2024-03-29T06:12:34;7.30;99.90
981;DHT22;479;53.514;9.994;2024-03-29T06:15:02;7.30;99.90
981;DHT22;479;53.514;9.994;2024-03-29T06:17:46;7.30;99.90
981;DHT22;479;53.514;9.994;2024-03-29T06:20:13;7.40;99.90
981;DHT22;479;53.514;9.994;2024-03-29T06:22:41;7.40;99.90
981;DHT22;479;53.514;9.994;2024-03-29T06:25:08;7.50;99.90
981;DHT22;479;53.514;9.994;2024-03-29T06:27:36;7.60;99.90
981;DHT22;479;53.514;9.994;2024-03-29T06:30:06;7.60;99.90
981;DHT22;479;53.514;9.994;2024-03-29T06:32:33;7.60;99.90
981;DHT22;479;53.514;9.994;2024-03-29T06:37:32;7.60;99.90
981;DHT22;479;53.514;9.994;2024-03-29T06:40:01;7.60;99.90
981;DHT22;479;53.514;9.994;2024-03-29T06:42:29;7.70;99.90
981;DHT22;479;53.514;9.994;2024-03-29T06:44:56;7.70;99.90
981;DHT22;479;53.514;9.994;2024-03-29T06:47:24;7.80;99.90
981;DHT22;479;53.514;9.994;2024-03-29T06:49:51;7.90;99.90
981;DHT22;479;53.514;9.994;2024-03-29T06:52:18;7.90;99.90
981;DHT22;479;53.514;9.994;2024-03-29T06:54:45;8.00;99.90
981;DHT22;479;53.514;9.994;2024-03-29T06:57:13;8.00;99.90
981;DHT22;479;53.514;9.994;2024-03-29T06:59:43;8.10;99.90
981;DHT22;479;53.514;9.994;2024-03-29T07:02:09;8.10;99.90
981;DHT22;479;53.514;9.994;2024-03-29T07:04:36;8.20;99.90
981;DHT22;479;53.514;9.994;2024-03-29T07:07:03;8.20;99.90
981;DHT22;479;53.514;9.994;2024-03-29T07:09:30;8.30;99.90
981;DHT22;479;53.514;9.994;2024-03-29T07:11:57;8.30;99.90
981;DHT22;479;53.514;9.994;2024-03-29T07:14:25;8.50;99.90
981;DHT22;479;53.514;9.994;2024-03-29T07:16:54;8.60;99.90
981;DHT22;479;53.514;9.994;2024-03-29T07:19:21;8.70;99.90
981;DHT22;479;53.514;9.994;2024-03-29T07:21:48;8.80;99.90
981;DHT22;479;53.514;9.994;2024-03-29T07:24:19;8.90;99.90
981;DHT22;479;53.514;9.994;2024-03-29T07:26:46;9.00;99.90
981;DHT22;479;53.514;9.994;2024-03-29T07:29:12;9.10;99.90
981;DHT22;479;53.514;9.994;2024-03-29T07:31:41;9.10;99.90
981;DHT22;479;53.514;9.994;2024-03-29T07:34:07;9.20;99.90
981;DHT22;479;53.514;9.994;2024-03-29T07:36:36;9.20;99.90
981;DHT22;479;53.514;9.994;2024-03-29T07:39:03;9.30;99.90
981;DHT22;479;53.514;9.994;2024-03-29T07:41:30;9.40;99.90
981;DHT22;479;53.514;9.994;2024-03-29T07:43:57;9.40;99.90
981;DHT22;479;53.514;9.994;2024-03-29T07:46:28;9.30;99.90
981;DHT22;479;53.514;9.994;2024-03-29T07:48:56;9.40;99.90
981;DHT22;479;53.514;9.994;2024-03-29T07:51:23;9.40;99.90
981;DHT22;479;53.514;9.994;2024-03-29T07:53:52;9.40;99.90
981;DHT22;479;53.514;9.994;2024-03-29T07:56:18;9.40;99.90
981;DHT22;479;53.514;9.994;2024-03-29T07:58:50;9.50;99.90
981;DHT22;479;53.514;9.994;2024-03-29T08:01:18;9.50;99.90
981;DHT22;479;53.514;9.994;2024-03-29T08:03:46;9.60;99.90
981;DHT22;479;53.514;9.994;2024-03-29T08:06:14;9.60;99.90
981;DHT22;479;53.514;9.994;2024-03-29T08:08:43;9.70;99.90
981;DHT22;479;53.514;9.994;2024-03-29T08:11:10;9.70;99.90
981;DHT22;479;53.514;9.994;2024-03-29T08:13:38;9.70;99.90
981;DHT22;479;53.514;9.994;2024-03-29T08:16:06;9.70;99.90
981;DHT22;479;53.514;9.994;2024-03-29T08:18:33;9.70;99.90
981;DHT22;479;53.514;9.994;2024-03-29T08:21:00;9.80;99.90
981;DHT22;479;53.514;9.994;2024-03-29T08:23:28;9.80;99.90
981;DHT22;479;53.514;9.994;2024-03-29T08:25:56;9.90;99.90
981;DHT22;479;53.514;9.994;2024-03-29T08:28:22;10.00;99.90
981;DHT22;479;53.514;9.994;2024-03-29T08:30:57;10.00;99.90
981;DHT22;479;53.514;9.994;2024-03-29T08:33:25;10.10;99.90
981;DHT22;479;53.514;9.994;2024-03-29T08:35:52;10.10;99.90
981;DHT22;479;53.514;9.994;2024-03-29T08:38:19;10.10;99.90
981;DHT22;479;53.514;9.994;2024-03-29T08:40:47;10.10;99.90
981;DHT22;479;53.514;9.994;2024-03-29T08:43:14;10.10;99.90
981;DHT22;479;53.514;9.994;2024-03-29T08:45:41;10.10;99.90
981;DHT22;479;53.514;9.994;2024-03-29T08:48:08;10.00;99.90
981;DHT22;479;53.514;9.994;2024-03-29T08:50:36;10.00;99.90
981;DHT22;479;53.514;9.994;2024-03-29T08:53:04;10.00;99.90
981;DHT22;479;53.514;9.994;2024-03-29T08:55:31;10.10;99.90
981;DHT22;479;53.514;9.994;2024-03-29T08:58:00;10.00;99.90
981;DHT22;479;53.514;9.994;2024-03-29T09:00:29;10.00;99.90
981;DHT22;479;53.514;9.994;2024-03-29T09:02:56;10.10;99.90
981;DHT22;479;53.514;9.994;2024-03-29T09:05:23;10.10;99.90
981;DHT22;479;53.514;9.994;2024-03-29T09:07:50;10.20;99.90
981;DHT22;479;53.514;9.994;2024-03-29T09:10:17;10.20;99.90
981;DHT22;479;53.514;9.994;2024-03-29T09:12:44;10.10;99.90
981;DHT22;479;53.514;9.994;2024-03-29T09:15:13;10.20;99.90
981;DHT22;479;53.514;9.994;2024-03-29T09:17:41;10.20;99.90
981;DHT22;479;53.514;9.994;2024-03-29T09:20:09;10.10;99.90
981;DHT22;479;53.514;9.994;2024-03-29T09:22:36;10.10;99.90
981;DHT22;479;53.514;9.994;2024-03-29T09:25:04;10.20;99.90
981;DHT22;479;53.514;9.994;2024-03-29T09:27:31;10.20;99.90
981;DHT22;479;53.514;9.994;2024-03-29T09:30:03;10.30;99.90
981;DHT22;479;53.514;9.994;2024-03-29T09:32:32;10.20;99.90
981;DHT22;479;53.514;9.994;2024-03-29T09:34:59;10.20;99.90
981;DHT22;479;53.514;9.994;2024-03-29T09:37:27;10.10;99.90
981;DHT22;479;53.514;9.994;2024-03-29T09:39:54;10.00;99.90
981;DHT22;479;53.514;9.994;2024-03-29T09:42:22;9.90;99.90
981;DHT22;479;53.514;9.994;2024-03-29T09:44:51;9.90;99.90
981;DHT22;479;53.514;9.994;2024-03-29T09:47:22;9.90;99.90
981;DHT22;479;53.514;9.994;2024-03-29T09:49:50;9.90;99.90
981;DHT22;479;53.514;9.994;2024-03-29T09:52:20;10.00;99.90
981;DHT22;479;53.514;9.994;2024-03-29T09:54:47;10.10;99.90
981;DHT22;479;53.514;9.994;2024-03-29T09:57:14;10.10;99.90
981;DHT22;479;53.514;9.994;2024-03-29T09:59:42;10.10;99.90
981;DHT22;479;53.514;9.994;2024-03-29T10:02:14;10.00;99.90
981;DHT22;479;53.514;9.994;2024-03-29T10:04:42;10.10;99.90
981;DHT22;479;53.514;9.994;2024-03-29T10:07:12;10.00;99.90
981;DHT22;479;53.514;9.994;2024-03-29T10:09:41;10.00;99.90
981;DHT22;479;53.514;9.994;2024-03-29T10:12:09;10.10;99.90
981;DHT22;479;53.514;9.994;2024-03-29T10:14:45;10.10;99.90
981;DHT22;479;53.514;9.994;2024-03-29T10:17:15;10.10;99.90
981;DHT22;479;53.514;9.994;2024-03-29T10:19:43;10.10;99.90
981;DHT22;479;53.514;9.994;2024-03-29T10:22:12;10.20;99.90
981;DHT22;479;53.514;9.994;2024-03-29T10:24:39;10.20;99.90
981;DHT22;479;53.514;9.994;2024-03-29T10:27:05;10.10;99.90
981;DHT22;479;53.514;9.994;2024-03-29T10:29:32;10.10;99.90
981;DHT22;479;53.514;9.994;2024-03-29T10:32:00;10.10;99.90
981;DHT22;479;53.514;9.994;2024-03-29T10:34:28;10.20;99.90
981;DHT22;479;53.514;9.994;2024-03-29T10:37:00;10.30;99.90
981;DHT22;479;53.514;9.994;2024-03-29T10:39:29;10.20;99.90
981;DHT22;479;53.514;9.994;2024-03-29T10:41:56;10.20;99.90
981;DHT22;479;53.514;9.994;2024-03-29T10:44:23;10.20;99.90
981;DHT22;479;53.514;9.994;2024-03-29T10:46:52;10.20;99.90
981;DHT22;479;53.514;9.994;2024-03-29T10:49:20;10.20;99.90
981;DHT22;479;53.514;9.994;2024-03-29T10:51:50;10.30;99.90
981;DHT22;479;53.514;9.994;2024-03-29T10:54:18;10.40;99.90
981;DHT22;479;53.514;9.994;2024-03-29T10:56:47;10.50;99.90
981;DHT22;479;53.514;9.994;2024-03-29T10:59:22;10.50;99.90
981;DHT22;479;53.514;9.994;2024-03-29T11:02:00;10.50;99.90
981;DHT22;479;53.514;9.994;2024-03-29T11:04:29;10.50;99.90
981;DHT22;479;53.514;9.994;2024-03-29T11:06:58;10.50;99.90
981;DHT22;479;53.514;9.994;2024-03-29T11:09:30;10.60;99.90
981;DHT22;479;53.514;9.994;2024-03-29T11:12:01;10.60;99.90
981;DHT22;479;53.514;9.994;2024-03-29T11:14:33;10.70;99.90
981;DHT22;479;53.514;9.994;2024-03-29T11:17:03;10.80;99.90
981;DHT22;479;53.514;9.994;2024-03-29T11:19:31;10.90;99.90
981;DHT22;479;53.514;9.994;2024-03-29T11:21:57;11.00;99.90
981;DHT22;479;53.514;9.994;2024-03-29T11:24:26;11.00;99.90
981;DHT22;479;53.514;9.994;2024-03-29T11:26:55;11.00;99.90
981;DHT22;479;53.514;9.994;2024-03-29T11:29:25;11.10;99.90
981;DHT22;479;53.514;9.994;2024-03-29T11:31:58;11.20;99.90
981;DHT22;479;53.514;9.994;2024-03-29T11:34:25;11.50;99.90
981;DHT22;479;53.514;9.994;2024-03-29T11:36:52;11.80;99.90
981;DHT22;479;53.514;9.994;2024-03-29T11:39:23;11.90;99.90
981;DHT22;479;53.514;9.994;2024-03-29T11:41:50;11.80;99.90
981;DHT22;479;53.514;9.994;2024-03-29T11:44:17;11.80;99.90
981;DHT22;479;53.514;9.994;2024-03-29T11:46:46;11.70;99.90
981;DHT22;479;53.514;9.994;2024-03-29T11:49:14;11.70;99.90
981;DHT22;479;53.514;9.994;2024-03-29T11:51:41;11.80;99.90
981;DHT22;479;53.514;9.994;2024-03-29T11:54:12;11.90;99.90
981;DHT22;479;53.514;9.994;2024-03-29T11:56:42;11.90;99.90
981;DHT22;479;53.514;9.994;2024-03-29T11:59:09;12.00;99.90
981;DHT22;479;53.514;9.994;2024-03-29T12:01:36;12.10;99.90
981;DHT22;479;53.514;9.994;2024-03-29T12:04:07;12.20;99.90
981;DHT22;479;53.514;9.994;2024-03-29T12:06:34;12.20;99.90
981;DHT22;479;53.514;9.994;2024-03-29T12:09:01;12.30;99.90
981;DHT22;479;53.514;9.994;2024-03-29T12:11:31;12.40;99.90
981;DHT22;479;53.514;9.994;2024-03-29T12:13:58;12.40;99.90
981;DHT22;479;53.514;9.994;2024-03-29T12:16:25;12.40;99.90
981;DHT22;479;53.514;9.994;2024-03-29T12:18:52;12.60;99.90
981;DHT22;479;53.514;9.994;2024-03-29T12:21:24;12.80;99.90
981;DHT22;479;53.514;9.994;2024-03-29T12:23:52;12.90;99.90
981;DHT22;479;53.514;9.994;2024-03-29T12:26:19;13.20;99.90
981;DHT22;479;53.514;9.994;2024-03-29T12:28:49;13.20;99.90
981;DHT22;479;53.514;9.994;2024-03-29T12:31:16;13.20;99.90
981;DHT22;479;53.514;9.994;2024-03-29T12:33:51;13.20;99.90
981;DHT22;479;53.514;9.994;2024-03-29T12:36:18;13.20;99.90
981;DHT22;479;53.514;9.994;2024-03-29T12:38:51;13.20;99.90
981;DHT22;479;53.514;9.994;2024-03-29T12:41:21;13.30;99.90
981;DHT22;479;53.514;9.994;2024-03-29T12:43:50;13.30;99.90
981;DHT22;479;53.514;9.994;2024-03-29T12:46:17;13.00;99.90
981;DHT22;479;53.514;9.994;2024-03-29T12:48:44;12.90;99.90
981;DHT22;479;53.514;9.994;2024-03-29T12:51:11;13.00;99.90
981;DHT22;479;53.514;9.994;2024-03-29T12:53:39;13.10;99.90
981;DHT22;479;53.514;9.994;2024-03-29T12:56:07;13.30;99.90
981;DHT22;479;53.514;9.994;2024-03-29T12:58:34;13.30;99.90
981;DHT22;479;53.514;9.994;2024-03-29T13:01:03;13.40;99.90
981;DHT22;479;53.514;9.994;2024-03-29T13:03:31;13.40;99.90
981;DHT22;479;53.514;9.994;2024-03-29T13:05:58;13.30;99.90
981;DHT22;479;53.514;9.994;2024-03-29T13:08:27;13.30;99.90
981;DHT22;479;53.514;9.994;2024-03-29T13:10:53;13.30;99.90
981;DHT22;479;53.514;9.994;2024-03-29T13:13:22;13.40;99.90
981;DHT22;479;53.514;9.994;2024-03-29T13:15:49;13.40;99.90
981;DHT22;479;53.514;9.994;2024-03-29T13:18:17;13.50;99.90
981;DHT22;479;53.514;9.994;2024-03-29T13:20:44;13.60;99.90
981;DHT22;479;53.514;9.994;2024-03-29T13:23:11;13.70;99.90
981;DHT22;479;53.514;9.994;2024-03-29T13:25:39;13.80;99.90
981;DHT22;479;53.514;9.994;2024-03-29T13:28:06;13.70;99.90
981;DHT22;479;53.514;9.994;2024-03-29T13:30:37;13.50;99.90
981;DHT22;479;53.514;9.994;2024-03-29T13:33:10;13.40;99.90
981;DHT22;479;53.514;9.994;2024-03-29T13:35:37;13.30;99.90
981;DHT22;479;53.514;9.994;2024-03-29T13:38:04;13.30;99.90
981;DHT22;479;53.514;9.994;2024-03-29T13:40:31;13.30;99.90
981;DHT22;479;53.514;9.994;2024-03-29T13:42:59;13.40;99.90
981;DHT22;479;53.514;9.994;2024-03-29T13:45:26;13.50;99.90
981;DHT22;479;53.514;9.994;2024-03-29T13:47:55;13.70;99.90
981;DHT22;479;53.514;9.994;2024-03-29T13:50:23;13.80;99.90
981;DHT22;479;53.514;9.994;2024-03-29T13:52:50;13.80;99.90
981;DHT22;479;53.514;9.994;2024-03-29T13:55:17;13.90;99.90
981;DHT22;479;53.514;9.994;2024-03-29T13:57:44;14.10;99.90
981;DHT22;479;53.514;9.994;2024-03-29T14:00:12;14.20;99.90
981;DHT22;479;53.514;9.994;2024-03-29T14:02:40;14.20;99.90
981;DHT22;479;53.514;9.994;2024-03-29T14:05:10;14.20;99.90
981;DHT22;479;53.514;9.994;2024-03-29T14:07:38;14.20;99.90
981;DHT22;479;53.514;9.994;2024-03-29T14:10:07;14.10;99.90
981;DHT22;479;53.514;9.994;2024-03-29T14:12:34;14.10;99.90
981;DHT22;479;53.514;9.994;2024-03-29T14:15:02;14.00;99.90
981;DHT22;479;53.514;9.994;2024-03-29T14:17:31;14.00;99.90
981;DHT22;479;53.514;9.994;2024-03-29T14:19:58;14.20;99.90
981;DHT22;479;53.514;9.994;2024-03-29T14:22:27;14.30;99.90
981;DHT22;479;53.514;9.994;2024-03-29T14:24:57;14.30;99.90
981;DHT22;479;53.514;9.994;2024-03-29T14:27:24;14.40;99.90
981;DHT22;479;53.514;9.994;2024-03-29T14:29:50;14.40;99.90
981;DHT22;479;53.514;9.994;2024-03-29T14:32:18;14.20;99.90
981;DHT22;479;53.514;9.994;2024-03-29T14:34:45;14.00;99.90
981;DHT22;479;53.514;9.994;2024-03-29T14:37:13;13.90;99.90
981;DHT22;479;53.514;9.994;2024-03-29T14:39:43;13.80;99.90
981;DHT22;479;53.514;9.994;2024-03-29T14:42:11;13.90;99.90
981;DHT22;479;53.514;9.994;2024-03-29T14:44:41;13.90;99.90
981;DHT22;479;53.514;9.994;2024-03-29T14:47:08;13.90;99.90
981;DHT22;479;53.514;9.994;2024-03-29T14:49:35;13.80;99.90
981;DHT22;479;53.514;9.994;2024-03-29T14:52:02;13.90;99.90
981;DHT22;479;53.514;9.994;2024-03-29T14:54:30;13.90;99.90
981;DHT22;479;53.514;9.994;2024-03-29T14:56:58;13.90;99.90
981;DHT22;479;53.514;9.994;2024-03-29T14:59:25;14.00;99.90
981;DHT22;479;53.514;9.994;2024-03-29T15:01:55;14.00;99.90
981;DHT22;479;53.514;9.994;2024-03-29T15:04:22;14.00;99.90
981;DHT22;479;53.514;9.994;2024-03-29T15:06:49;14.10;99.90
981;DHT22;479;53.514;9.994;2024-03-29T15:09:17;14.10;99.90
981;DHT22;479;53.514;9.994;2024-03-29T15:11:44;14.00;99.90
981;DHT22;479;53.514;9.994;2024-03-29T15:14:12;13.90;99.90
981;DHT22;479;53.514;9.994;2024-03-29T15:16:39;13.90;99.90
981;DHT22;479;53.514;9.994;2024-03-29T15:19:06;13.80;99.90
981;DHT22;479;53.514;9.994;2024-03-29T15:21:33;13.90;99.90
981;DHT22;479;53.514;9.994;2024-03-29T15:24:03;14.00;99.90
981;DHT22;479;53.514;9.994;2024-03-29T15:26:30;14.00;99.90
981;DHT22;479;53.514;9.994;2024-03-29T15:28:59;14.20;99.90
981;DHT22;479;53.514;9.994;2024-03-29T15:31:38;14.30;99.90
981;DHT22;479;53.514;9.994;2024-03-29T15:34:05;14.40;99.90
981;DHT22;479;53.514;9.994;2024-03-29T15:36:34;14.40;99.90
981;DHT22;479;53.514;9.994;2024-03-29T15:39:02;14.30;99.90
981;DHT22;479;53.514;9.994;2024-03-29T15:41:34;14.30;99.90
981;DHT22;479;53.514;9.994;2024-03-29T15:44:02;14.20;99.90
981;DHT22;479;53.514;9.994;2024-03-29T15:46:29;14.10;99.90
981;DHT22;479;53.514;9.994;2024-03-29T15:48:58;14.00;99.90
981;DHT22;479;53.514;9.994;2024-03-29T15:51:26;14.00;99.90
981;DHT22;479;53.514;9.994;2024-03-29T15:53:54;14.00;99.90
981;DHT22;479;53.514;9.994;2024-03-29T15:56:26;13.90;99.90
981;DHT22;479;53.514;9.994;2024-03-29T15:58:53;13.80;99.90
981;DHT22;479;53.514;9.994;2024-03-29T16:01:20;13.80;99.90
981;DHT22;479;53.514;9.994;2024-03-29T16:03:46;13.80;99.90
981;DHT22;479;53.514;9.994;2024-03-29T16:06:15;13.80;99.90
981;DHT22;479;53.514;9.994;2024-03-29T16:08:42;13.80;99.90
981;DHT22;479;53.514;9.994;2024-03-29T16:11:09;13.80;99.90
981;DHT22;479;53.514;9.994;2024-03-29T16:13:36;13.90;99.90
981;DHT22;479;53.514;9.994;2024-03-29T16:16:04;14.00;99.90
981;DHT22;479;53.514;9.994;2024-03-29T16:18:31;14.00;99.90
981;DHT22;479;53.514;9.994;2024-03-29T16:20:59;14.10;99.90
981;DHT22;479;53.514;9.994;2024-03-29T16:23:27;14.00;99.90
981;DHT22;479;53.514;9.994;2024-03-29T16:25:55;14.00;99.90
981;DHT22;479;53.514;9.994;2024-03-29T16:28:24;14.00;99.90
981;DHT22;479;53.514;9.994;2024-03-29T16:30:51;14.10;99.90
981;DHT22;479;53.514;9.994;2024-03-29T16:33:18;14.20;99.90
981;DHT22;479;53.514;9.994;2024-03-29T16:35:45;14.20;99.90
981;DHT22;479;53.514;9.994;2024-03-29T16:38:12;14.00;99.90
981;DHT22;479;53.514;9.994;2024-03-29T16:40:39;14.00;99.90
981;DHT22;479;53.514;9.994;2024-03-29T16:43:06;13.90;99.90
981;DHT22;479;53.514;9.994;2024-03-29T16:45:33;13.80;99.90
981;DHT22;479;53.514;9.994;2024-03-29T16:48:00;13.80;99.90
981;DHT22;479;53.514;9.994;2024-03-29T16:50:26;13.80;99.90